sensor_id;sensor_type;location;lat;lon;timestamp;temperature;humidity
17795;DHT22;9021;50.882;4.326;2023-04-01T00:00:59;11.30;99.90
17795;DHT22;9021;50.882;4.326;2023-04-01T00:03:27;10.80;99.90
17795;DHT22;9021;50.882;4.326;2023-04-01T00:05:53;10.70;99.90
17795;DHT22;9021;50.882;4.326;2023-04-01T00:08:19;10.80;99.90
17795;DHT22;9021;50.882;4.326;2023-04-01T00:10:45;10.80;99.90
17795;DHT22;9021;50.882;4.326;2023-04-01T00:13:11;10.90;99.90
17795;DHT22;9021;50.882;4.326;2023-04-01T00:15:37;10.90;99.90
17795;DHT22;9021;50.882;4.326;2023-04-01T00:18:02;10.90;99.90
17795;DHT22;9021;50.882;4.326;2023-04-01T00:20:29;10.90;99.90
17795;DHT22;9021;50.882;4.326;2023-04-01T00:22:54;11.00;99.90
17795;DHT22;9021;50.882;4.326;2023-04-01T00:25:20;11.00;99.90
17795;DHT22;9021;50.882;4.326;2023-04-01T00:27:46;11.10;99.90
17795;DHT22;9021;50.882;4.326;2023-04-01T00:30:12;11.10;99.90
17795;DHT22;9021;50.882;4.326;2023-04-01T00:32:37;11.20;99.90
17795;DHT22;9021;50.882;4.326;2023-04-01T00:35:04;11.10;99.90
17795;DHT22;9021;50.882;4.326;2023-04-01T00:37:30;11.10;99.90
17795;DHT22;9021;50.882;4.326;2023-04-01T00:39:55;11.10;99.90
17795;DHT22;9021;50.882;4.326;2023-04-01T00:42:22;11.10;99.90
17795;DHT22;9021;50.882;4.326;2023-04-01T00:44:51;11.20;99.90
17795;DHT22;9021;50.882;4.326;2023-04-01T00:47:18;11.20;99.90
17795;DHT22;9021;50.882;4.326;2023-04-01T00:49:46;11.20;99.90
17795;DHT22;9021;50.882;4.326;2023-04-01T00:52:16;11.50;99.90
17795;DHT22;9021;50.882;4.326;2023-04-01T00:54:45;11.20;99.90
17795;DHT22;9021;50.882;4.326;2023-04-01T00:59:46;11.20;99.90
17795;DHT22;9021;50.882;4.326;2023-04-01T01:02:15;11.10;99.90
17795;DHT22;9021;50.882;4.326;2023-04-01T01:04:41;11.10;99.90
17795;DHT22;9021;50.882;4.326;2023-04-01T01:07:32;11.20;99.90
17795;DHT22;9021;50.882;4.326;2023-04-01T01:12:39;11.10;99.90
17795;DHT22;9021;50.882;4.326;2023-04-01T01:17:35;11.00;99.90
17795;DHT22;9021;50.882;4.326;2023-04-01T01:28:41;11.30;99.90
17795;DHT22;9021;50.882;4.326;2023-04-01T01:31:22;11.20;99.90
17795;DHT22;9021;50.882;4.326;2023-04-01T01:36:27;11.00;99.90
17795;DHT22;9021;50.882;4.326;2023-04-01T01:38:54;11.10;99.90
17795;DHT22;9021;50.882;4.326;2023-04-01T01:41:22;11.20;99.90
17795;DHT22;9021;50.882;4.326;2023-04-01T01:43:51;11.20;99.90
17795;DHT22;9021;50.882;4.326;2023-04-01T01:46:23;11.20;99.90
17795;DHT22;9021;50.882;4.326;2023-04-01T01:48:50;11.30;99.90
17795;DHT22;9021;50.882;4.326;2023-04-01T01:51:18;11.30;99.90
17795;DHT22;9021;50.882;4.326;2023-04-01T01:53:44;11.30;99.90
17795;DHT22;9021;50.882;4.326;2023-04-01T01:56:11;11.50;99.90
17795;DHT22;9021;50.882;4.326;2023-04-01T01:59:05;11.20;99.90
17795;DHT22;9021;50.882;4.326;2023-04-01T02:01:35;11.70;99.90
17795;DHT22;9021;50.882;4.326;2023-04-01T02:04:02;11.10;99.90
17795;DHT22;9021;50.882;4.326;2023-04-01T02:06:31;11.70;99.90
17795;DHT22;9021;50.882;4.326;2023-04-01T02:09:00;11.30;99.90
17795;DHT22;9021;50.882;4.326;2023-04-01T02:17:24;11.20;99.90
17795;DHT22;9021;50.882;4.326;2023-04-01T02:20:01;11.60;99.90
17795;DHT22;9021;50.882;4.326;2023-04-01T02:22:37;11.00;99.90
17795;DHT22;9021;50.882;4.326;2023-04-01T02:25:09;11.00;99.90
17795;DHT22;9021;50.882;4.326;2023-04-01T02:27:36;11.00;99.90
17795;DHT22;9021;50.882;4.326;2023-04-01T02:30:03;11.60;99.90
17795;DHT22;9021;50.882;4.326;2023-04-01T02:32:28;11.00;99.90
17795;DHT22;9021;50.882;4.326;2023-04-01T02:34:55;11.00;99.90
17795;DHT22;9021;50.882;4.326;2023-04-01T02:37:22;11.00;99.90
17795;DHT22;9021;50.882;4.326;2023-04-01T02:39:48;11.00;99.90
17795;DHT22;9021;50.882;4.326;2023-04-01T02:42:14;11.10;99.90
17795;DHT22;9021;50.882;4.326;2023-04-01T02:44:39;11.10;99.90
17795;DHT22;9021;50.882;4.326;2023-04-01T02:47:05;11.10;99.90
17795;DHT22;9021;50.882;4.326;2023-04-01T02:49:31;11.00;99.90
17795;DHT22;9021;50.882;4.326;2023-04-01T02:51:57;11.10;99.90
17795;DHT22;9021;50.882;4.326;2023-04-01T02:54:22;11.10;99.90
17795;DHT22;9021;50.882;4.326;2023-04-01T02:56:48;11.10;99.90
17795;DHT22;9021;50.882;4.326;2023-04-01T02:59:13;11.00;99.90
17795;DHT22;9021;50.882;4.326;2023-04-01T03:01:39;11.10;99.90
17795;DHT22;9021;50.882;4.326;2023-04-01T03:04:05;11.70;99.90
17795;DHT22;9021;50.882;4.326;2023-04-01T03:06:30;11.30;99.90
17795;DHT22;9021;50.882;4.326;2023-04-01T03:08:56;11.50;99.90
17795;DHT22;9021;50.882;4.326;2023-04-01T03:11:22;11.10;99.90
17795;DHT22;9021;50.882;4.326;2023-04-01T03:13:48;11.50;99.90
17795;DHT22;9021;50.882;4.326;2023-04-01T03:16:14;11.60;99.90
17795;DHT22;9021;50.882;4.326;2023-04-01T03:18:40;11.50;99.90
17795;DHT22;9021;50.882;4.326;2023-04-01T03:21:13;11.10;99.90
17795;DHT22;9021;50.882;4.326;2023-04-01T03:23:39;11.10;99.90
17795;DHT22;9021;50.882;4.326;2023-04-01T03:26:05;11.20;99.90
17795;DHT22;9021;50.882;4.326;2023-04-01T03:28:31;11.10;99.90
17795;DHT22;9021;50.882;4.326;2023-04-01T03:30:56;10.50;99.90
17795;DHT22;9021;50.882;4.326;2023-04-01T03:33:22;11.10;99.90
17795;DHT22;9021;50.882;4.326;2023-04-01T03:35:47;11.10;99.90
17795;DHT22;9021;50.882;4.326;2023-04-01T03:40:42;11.10;99.90
17795;DHT22;9021;50.882;4.326;2023-04-01T03:43:08;10.90;99.90
17795;DHT22;9021;50.882;4.326;2023-04-01T03:45:35;11.20;99.90
17795;DHT22;9021;50.882;4.326;2023-04-01T03:48:01;11.10;99.90
17795;DHT22;9021;50.882;4.326;2023-04-01T03:52:53;11.00;99.90
17795;DHT22;9021;50.882;4.326;2023-04-01T03:55:18;10.90;99.90
17795;DHT22;9021;50.882;4.326;2023-04-01T03:57:44;10.90;99.90
17795;DHT22;9021;50.882;4.326;2023-04-01T04:00:10;11.20;99.90
17795;DHT22;9021;50.882;4.326;2023-04-01T04:02:36;11.40;99.90
17795;DHT22;9021;50.882;4.326;2023-04-01T04:05:02;10.90;99.90
17795;DHT22;9021;50.882;4.326;2023-04-01T04:07:27;11.20;99.90
17795;DHT22;9021;50.882;4.326;2023-04-01T04:09:53;11.50;99.90
17795;DHT22;9021;50.882;4.326;2023-04-01T04:12:19;11.20;99.90
17795;DHT22;9021;50.882;4.326;2023-04-01T04:14:44;10.90;99.90
17795;DHT22;9021;50.882;4.326;2023-04-01T04:17:10;11.50;99.90
17795;DHT22;9021;50.882;4.326;2023-04-01T04:19:42;11.10;99.90
17795;DHT22;9021;50.882;4.326;2023-04-01T04:22:08;11.20;99.90
17795;DHT22;9021;50.882;4.326;2023-04-01T04:24:36;11.10;99.90
17795;DHT22;9021;50.882;4.326;2023-04-01T04:27:03;11.00;99.90
17795;DHT22;9021;50.882;4.326;2023-04-01T04:29:29;11.10;99.90
17795;DHT22;9021;50.882;4.326;2023-04-01T04:31:55;11.40;99.90
17795;DHT22;9021;50.882;4.326;2023-04-01T04:34:20;11.10;99.90
17795;DHT22;9021;50.882;4.326;2023-04-01T04:36:48;11.20;99.90
17795;DHT22;9021;50.882;4.326;2023-04-01T04:39:14;11.20;99.90
17795;DHT22;9021;50.882;4.326;2023-04-01T04:41:40;11.20;99.90
17795;DHT22;9021;50.882;4.326;2023-04-01T04:44:05;11.20;99.90
17795;DHT22;9021;50.882;4.326;2023-04-01T04:46:31;11.10;99.90
17795;DHT22;9021;50.882;4.326;2023-04-01T04:48:57;11.20;99.90
17795;DHT22;9021;50.882;4.326;2023-04-01T04:51:23;11.70;99.90
17795;DHT22;9021;50.882;4.326;2023-04-01T04:53:49;11.20;99.90
17795;DHT22;9021;50.882;4.326;2023-04-01T04:56:21;11.20;99.90
17795;DHT22;9021;50.882;4.326;2023-04-01T04:58:47;11.20;99.90
17795;DHT22;9021;50.882;4.326;2023-04-01T05:01:14;11.10;99.90
17795;DHT22;9021;50.882;4.326;2023-04-01T05:03:41;11.10;99.90
17795;DHT22;9021;50.882;4.326;2023-04-01T05:06:08;11.10;99.90
17795;DHT22;9021;50.882;4.326;2023-04-01T05:08:34;11.60;99.90
17795;DHT22;9021;50.882;4.326;2023-04-01T05:11:00;11.20;99.90
17795;DHT22;9021;50.882;4.326;2023-04-01T05:13:26;11.20;99.90
17795;DHT22;9021;50.882;4.326;2023-04-01T05:15:52;11.20;99.90
17795;DHT22;9021;50.882;4.326;2023-04-01T05:18:17;11.20;99.90
17795;DHT22;9021;50.882;4.326;2023-04-01T05:20:48;11.20;99.90
17795;DHT22;9021;50.882;4.326;2023-04-01T05:23:13;11.10;99.90
17795;DHT22;9021;50.882;4.326;2023-04-01T05:25:39;12.20;99.90
17795;DHT22;9021;50.882;4.326;2023-04-01T05:28:05;11.00;99.90
17795;DHT22;9021;50.882;4.326;2023-04-01T05:30:31;11.00;99.90
17795;DHT22;9021;50.882;4.326;2023-04-01T05:32:56;11.20;99.90
17795;DHT22;9021;50.882;4.326;2023-04-01T05:35:23;11.10;99.90
17795;DHT22;9021;50.882;4.326;2023-04-01T05:37:48;10.90;99.90
17795;DHT22;9021;50.882;4.326;2023-04-01T05:40:14;11.60;99.90
17795;DHT22;9021;50.882;4.326;2023-04-01T05:42:40;11.00;99.90
17795;DHT22;9021;50.882;4.326;2023-04-01T05:45:06;11.00;99.90
17795;DHT22;9021;50.882;4.326;2023-04-01T05:47:31;10.90;99.90
17795;DHT22;9021;50.882;4.326;2023-04-01T05:49:57;11.00;99.90
17795;DHT22;9021;50.882;4.326;2023-04-01T05:52:23;10.90;99.90
17795;DHT22;9021;50.882;4.326;2023-04-01T05:54:48;10.90;99.90
17795;DHT22;9021;50.882;4.326;2023-04-01T05:57:14;10.90;99.90
17795;DHT22;9021;50.882;4.326;2023-04-01T05:59:40;10.90;99.90
17795;DHT22;9021;50.882;4.326;2023-04-01T06:02:05;10.90;99.90
17795;DHT22;9021;50.882;4.326;2023-04-01T06:04:38;10.80;99.90
17795;DHT22;9021;50.882;4.326;2023-04-01T06:07:15;11.50;99.90
17795;DHT22;9021;50.882;4.326;2023-04-01T06:09:41;11.40;99.90
17795;DHT22;9021;50.882;4.326;2023-04-01T06:23:26;11.10;99.90
17795;DHT22;9021;50.882;4.326;2023-04-01T06:29:07;11.20;99.90
17795;DHT22;9021;50.882;4.326;2023-04-01T06:45:59;11.20;99.90
17795;DHT22;9021;50.882;4.326;2023-04-01T06:49:17;11.20;99.90
17795;DHT22;9021;50.882;4.326;2023-04-01T06:54:17;11.10;99.90
17795;DHT22;9021;50.882;4.326;2023-04-01T06:56:48;11.00;99.90
17795;DHT22;9021;50.882;4.326;2023-04-01T06:59:28;11.00;99.90
17795;DHT22;9021;50.882;4.326;2023-04-01T07:01:58;11.00;99.90
17795;DHT22;9021;50.882;4.326;2023-04-01T07:04:36;11.10;99.90
17795;DHT22;9021;50.882;4.326;2023-04-01T07:07:10;11.30;99.90
17795;DHT22;9021;50.882;4.326;2023-04-01T07:09:41;11.10;99.90
17795;DHT22;9021;50.882;4.326;2023-04-01T07:12:25;12.10;99.90
17795;DHT22;9021;50.882;4.326;2023-04-01T07:14:55;11.20;99.90
17795;DHT22;9021;50.882;4.326;2023-04-01T07:17:25;11.20;99.90
17795;DHT22;9021;50.882;4.326;2023-04-01T07:22:33;11.00;99.90
17795;DHT22;9021;50.882;4.326;2023-04-01T07:25:12;12.00;99.90
17795;DHT22;9021;50.882;4.326;2023-04-01T07:27:39;13.00;99.90
17795;DHT22;9021;50.882;4.326;2023-04-01T07:30:16;11.10;99.90
17795;DHT22;9021;50.882;4.326;2023-04-01T07:32:47;11.10;99.90
17795;DHT22;9021;50.882;4.326;2023-04-01T07:35:30;11.20;99.90
17795;DHT22;9021;50.882;4.326;2023-04-01T07:38:46;11.20;99.90
17795;DHT22;9021;50.882;4.326;2023-04-01T07:44:02;11.30;99.90
17795;DHT22;9021;50.882;4.326;2023-04-01T07:46:56;11.20;99.90
17795;DHT22;9021;50.882;4.326;2023-04-01T07:49:40;11.20;99.90
17795;DHT22;9021;50.882;4.326;2023-04-01T07:52:44;11.50;99.90
17795;DHT22;9021;50.882;4.326;2023-04-01T07:55:23;11.30;99.90
17795;DHT22;9021;50.882;4.326;2023-04-01T07:58:19;11.30;99.90
17795;DHT22;9021;50.882;4.326;2023-04-01T08:06:31;11.40;99.90
17795;DHT22;9021;50.882;4.326;2023-04-01T08:11:49;11.30;99.90
17795;DHT22;9021;50.882;4.326;2023-04-01T08:14:38;11.70;99.90
17795;DHT22;9021;50.882;4.326;2023-04-01T08:20:37;11.50;99.90
17795;DHT22;9021;50.882;4.326;2023-04-01T08:23:15;11.60;99.90
17795;DHT22;9021;50.882;4.326;2023-04-01T08:28:47;11.60;99.90
17795;DHT22;9021;50.882;4.326;2023-04-01T08:31:23;11.60;99.90
17795;DHT22;9021;50.882;4.326;2023-04-01T08:33:53;11.70;99.90
17795;DHT22;9021;50.882;4.326;2023-04-01T08:36:28;11.70;99.90
17795;DHT22;9021;50.882;4.326;2023-04-01T08:41:42;12.20;99.90
17795;DHT22;9021;50.882;4.326;2023-04-01T08:52:31;11.70;99.90
17795;DHT22;9021;50.882;4.326;2023-04-01T08:58:05;11.70;99.90
17795;DHT22;9021;50.882;4.326;2023-04-01T09:12:14;11.70;99.90
17795;DHT22;9021;50.882;4.326;2023-04-01T09:17:47;11.60;99.90
17795;DHT22;9021;50.882;4.326;2023-04-01T09:23:58;11.60;99.90
17795;DHT22;9021;50.882;4.326;2023-04-01T09:32:16;11.70;99.90
17795;DHT22;9021;50.882;4.326;2023-04-01T09:35:20;11.70;99.90
17795;DHT22;9021;50.882;4.326;2023-04-01T09:45:53;11.90;99.90
17795;DHT22;9021;50.882;4.326;2023-04-01T09:51:39;12.10;99.90
17795;DHT22;9021;50.882;4.326;2023-04-01T10:28:58;12.60;99.90
17795;DHT22;9021;50.882;4.326;2023-04-01T10:46:44;13.00;99.90
17795;DHT22;9021;50.882;4.326;2023-04-01T11:04:36;13.20;99.90
17795;DHT22;9021;50.882;4.326;2023-04-01T11:26:04;13.40;99.90
17795;DHT22;9021;50.882;4.326;2023-04-01T11:31:22;13.10;99.90
17795;DHT22;9021;50.882;4.326;2023-04-01T11:50:51;13.00;99.90
17795;DHT22;9021;50.882;4.326;2023-04-01T11:59:19;13.10;99.90
17795;DHT22;9021;50.882;4.326;2023-04-01T12:05:11;13.10;99.90
17795;DHT22;9021;50.882;4.326;2023-04-01T12:10:19;13.00;99.90
17795;DHT22;9021;50.882;4.326;2023-04-01T12:18:16;12.70;99.90
17795;DHT22;9021;50.882;4.326;2023-04-01T13:02:03;12.50;99.90
17795;DHT22;9021;50.882;4.326;2023-04-01T13:04:44;12.50;99.90
17795;DHT22;9021;50.882;4.326;2023-04-01T13:07:43;12.40;99.90
17795;DHT22;9021;50.882;4.326;2023-04-01T13:10:36;12.50;99.90
17795;DHT22;9021;50.882;4.326;2023-04-01T13:15:49;12.30;99.90
17795;DHT22;9021;50.882;4.326;2023-04-01T13:18:25;12.40;99.90
17795;DHT22;9021;50.882;4.326;2023-04-01T13:21:11;12.30;99.90
17795;DHT22;9021;50.882;4.326;2023-04-01T13:28:57;12.30;99.90
17795;DHT22;9021;50.882;4.326;2023-04-01T13:39:52;12.20;99.90
17795;DHT22;9021;50.882;4.326;2023-04-01T13:43:04;12.30;99.90
17795;DHT22;9021;50.882;4.326;2023-04-01T13:57:21;12.70;99.90
17795;DHT22;9021;50.882;4.326;2023-04-01T14:00:11;12.80;99.90
17795;DHT22;9021;50.882;4.326;2023-04-01T14:05:36;12.90;99.90
17795;DHT22;9021;50.882;4.326;2023-04-01T14:13:30;13.10;99.90
17795;DHT22;9021;50.882;4.326;2023-04-01T14:21:33;13.20;99.90
17795;DHT22;9021;50.882;4.326;2023-04-01T14:29:27;13.00;99.90
17795;DHT22;9021;50.882;4.326;2023-04-01T14:37:35;12.80;99.90
17795;DHT22;9021;50.882;4.326;2023-04-01T14:46:53;12.70;99.90
17795;DHT22;9021;50.882;4.326;2023-04-01T14:49:24;12.70;99.90
17795;DHT22;9021;50.882;4.326;2023-04-01T14:52:16;12.70;99.90
17795;DHT22;9021;50.882;4.326;2023-04-01T14:54:48;12.70;99.90
17795;DHT22;9021;50.882;4.326;2023-04-01T14:57:37;12.80;99.90
17795;DHT22;9021;50.882;4.326;2023-04-01T15:00:15;13.40;99.90
17795;DHT22;9021;50.882;4.326;2023-04-01T15:05:54;12.60;99.90
17795;DHT22;9021;50.882;4.326;2023-04-01T15:08:28;12.50;99.90
17795;DHT22;9021;50.882;4.326;2023-04-01T15:11:32;12.60;99.90
17795;DHT22;9021;50.882;4.326;2023-04-01T15:14:37;12.60;99.90
17795;DHT22;9021;50.882;4.326;2023-04-01T15:28:07;12.50;99.90
17795;DHT22;9021;50.882;4.326;2023-04-01T15:36:20;12.30;99.90
17795;DHT22;9021;50.882;4.326;2023-04-01T15:39:04;12.30;99.90
17795;DHT22;9021;50.882;4.326;2023-04-01T15:44:41;12.30;99.90
17795;DHT22;9021;50.882;4.326;2023-04-01T15:52:42;11.90;99.90
17795;DHT22;9021;50.882;4.326;2023-04-01T15:58:21;11.90;99.90
17795;DHT22;9021;50.882;4.326;2023-04-01T16:15:17;11.90;99.90
17795;DHT22;9021;50.882;4.326;2023-04-01T16:23:16;11.80;99.90
17795;DHT22;9021;50.882;4.326;2023-04-01T16:25:49;11.80;99.90
17795;DHT22;9021;50.882;4.326;2023-04-01T16:28:40;11.80;99.90
17795;DHT22;9021;50.882;4.326;2023-04-01T16:34:19;11.70;99.90
17795;DHT22;9021;50.882;4.326;2023-04-01T16:37:00;11.60;99.90
17795;DHT22;9021;50.882;4.326;2023-04-01T16:39:59;11.70;99.90
17795;DHT22;9021;50.882;4.326;2023-04-01T16:42:43;11.80;99.90
17795;DHT22;9021;50.882;4.326;2023-04-01T16:48:18;11.90;99.90
17795;DHT22;9021;50.882;4.326;2023-04-01T16:50:58;11.90;99.90
17795;DHT22;9021;50.882;4.326;2023-04-01T16:53:47;11.80;99.90
17795;DHT22;9021;50.882;4.326;2023-04-01T16:56:24;11.70;99.90
17795;DHT22;9021;50.882;4.326;2023-04-01T17:01:52;11.80;99.90
17795;DHT22;9021;50.882;4.326;2023-04-01T17:08:09;11.70;99.90
17795;DHT22;9021;50.882;4.326;2023-04-01T17:10:40;11.60;99.90
17795;DHT22;9021;50.882;4.326;2023-04-01T17:13:34;11.60;99.90
17795;DHT22;9021;50.882;4.326;2023-04-01T17:16:35;11.60;99.90
17795;DHT22;9021;50.882;4.326;2023-04-01T17:22:03;11.70;99.90
17795;DHT22;9021;50.882;4.326;2023-04-01T17:24:51;11.60;99.90
17795;DHT22;9021;50.882;4.326;2023-04-01T17:27:33;11.60;99.90
17795;DHT22;9021;50.882;4.326;2023-04-01T17:30:39;11.60;99.90
17795;DHT22;9021;50.882;4.326;2023-04-01T17:35:58;11.60;99.90
17795;DHT22;9021;50.882;4.326;2023-04-01T17:39:04;11.60;99.90
17795;DHT22;9021;50.882;4.326;2023-04-01T17:41:30;11.50;99.90
17795;DHT22;9021;50.882;4.326;2023-04-01T17:44:25;11.50;99.90
17795;DHT22;9021;50.882;4.326;2023-04-01T17:52:19;11.60;99.90
17795;DHT22;9021;50.882;4.326;2023-04-01T17:58:03;11.40;99.90
17795;DHT22;9021;50.882;4.326;2023-04-01T18:00:37;11.40;99.90
17795;DHT22;9021;50.882;4.326;2023-04-01T18:09:00;11.30;99.90
17795;DHT22;9021;50.882;4.326;2023-04-01T18:11:59;11.30;99.90
17795;DHT22;9021;50.882;4.326;2023-04-01T18:21:27;11.30;99.90
17795;DHT22;9021;50.882;4.326;2023-04-01T18:26:50;11.30;99.90
17795;DHT22;9021;50.882;4.326;2023-04-01T18:30:00;11.30;99.90
17795;DHT22;9021;50.882;4.326;2023-04-01T18:38:12;11.30;99.90
17795;DHT22;9021;50.882;4.326;2023-04-01T18:40:42;11.20;99.90
17795;DHT22;9021;50.882;4.326;2023-04-01T18:43:16;11.30;99.90
17795;DHT22;9021;50.882;4.326;2023-04-01T18:45:53;11.40;99.90
17795;DHT22;9021;50.882;4.326;2023-04-01T18:49:13;11.20;99.90
17795;DHT22;9021;50.882;4.326;2023-04-01T18:54:27;11.20;99.90
17795;DHT22;9021;50.882;4.326;2023-04-01T18:57:21;11.20;99.90
17795;DHT22;9021;50.882;4.326;2023-04-01T18:59:57;11.20;99.90
17795;DHT22;9021;50.882;4.326;2023-04-01T19:02:48;11.20;99.90
17795;DHT22;9021;50.882;4.326;2023-04-01T19:05:40;11.10;99.90
17795;DHT22;9021;50.882;4.326;2023-04-01T19:08:29;11.00;99.90
17795;DHT22;9021;50.882;4.326;2023-04-01T19:21:57;10.90;99.90
17795;DHT22;9021;50.882;4.326;2023-04-01T19:24:36;10.90;99.90
17795;DHT22;9021;50.882;4.326;2023-04-01T19:27:41;10.80;99.90
17795;DHT22;9021;50.882;4.326;2023-04-01T19:32:58;11.00;99.90
17795;DHT22;9021;50.882;4.326;2023-04-01T19:38:24;10.90;99.90
17795;DHT22;9021;50.882;4.326;2023-04-01T19:46:55;10.80;99.90
17795;DHT22;9021;50.882;4.326;2023-04-01T19:49:44;10.80;99.90
17795;DHT22;9021;50.882;4.326;2023-04-01T19:52:20;10.70;99.90
17795;DHT22;9021;50.882;4.326;2023-04-01T19:55:37;10.70;99.90
17795;DHT22;9021;50.882;4.326;2023-04-01T19:57:48;10.70;99.90
17795;DHT22;9021;50.882;4.326;2023-04-01T20:00:57;10.70;99.90
17795;DHT22;9021;50.882;4.326;2023-04-01T20:06:27;10.80;99.90
17795;DHT22;9021;50.882;4.326;2023-04-01T20:12:08;10.90;99.90
17795;DHT22;9021;50.882;4.326;2023-04-01T20:14:45;10.90;99.90
17795;DHT22;9021;50.882;4.326;2023-04-01T20:17:32;10.90;99.90
17795;DHT22;9021;50.882;4.326;2023-04-01T20:39:08;11.00;99.90
17795;DHT22;9021;50.882;4.326;2023-04-01T20:44:46;11.00;99.90
17795;DHT22;9021;50.882;4.326;2023-04-01T20:52:46;10.90;99.90
17795;DHT22;9021;50.882;4.326;2023-04-01T20:55:26;11.00;99.90
17795;DHT22;9021;50.882;4.326;2023-04-01T20:58:13;11.00;99.90
17795;DHT22;9021;50.882;4.326;2023-04-01T21:00:54;11.00;99.90
17795;DHT22;9021;50.882;4.326;2023-04-01T21:03:45;11.00;99.90
17795;DHT22;9021;50.882;4.326;2023-04-01T21:37:32;10.90;99.90
17795;DHT22;9021;50.882;4.326;2023-04-01T21:45:22;11.00;99.90
17795;DHT22;9021;50.882;4.326;2023-04-01T21:56:42;11.10;99.90
17795;DHT22;9021;50.882;4.326;2023-04-01T22:07:33;11.10;99.90
17795;DHT22;9021;50.882;4.326;2023-04-01T22:12:50;11.10;99.90
17795;DHT22;9021;50.882;4.326;2023-04-01T22:15:45;11.20;99.90
17795;DHT22;9021;50.882;4.326;2023-04-01T22:27:07;11.70;99.90
17795;DHT22;9021;50.882;4.326;2023-04-01T22:29:10;11.30;99.90
17795;DHT22;9021;50.882;4.326;2023-04-01T22:31:55;11.20;99.90
17795;DHT22;9021;50.882;4.326;2023-04-01T22:37:27;11.20;99.90
17795;DHT22;9021;50.882;4.326;2023-04-01T22:39:58;11.20;99.90
17795;DHT22;9021;50.882;4.326;2023-04-01T22:42:42;11.10;99.90
17795;DHT22;9021;50.882;4.326;2023-04-01T22:48:05;11.20;99.90
17795;DHT22;9021;50.882;4.326;2023-04-01T22:50:40;11.10;99.90
17795;DHT22;9021;50.882;4.326;2023-04-01T22:53:17;11.20;99.90
17795;DHT22;9021;50.882;4.326;2023-04-01T22:55:49;11.20;99.90
17795;DHT22;9021;50.882;4.326;2023-04-01T22:58:20;11.30;99.90
17795;DHT22;9021;50.882;4.326;2023-04-01T23:00:54;11.30;99.90
17795;DHT22;9021;50.882;4.326;2023-04-01T23:03:29;11.30;99.90
17795;DHT22;9021;50.882;4.326;2023-04-01T23:06:02;11.20;99.90
17795;DHT22;9021;50.882;4.326;2023-04-01T23:11:58;11.10;99.90
17795;DHT22;9021;50.882;4.326;2023-04-01T23:16:58;11.10;99.90
17795;DHT22;9021;50.882;4.326;2023-04-01T23:19:37;11.10;99.90
17795;DHT22;9021;50.882;4.326;2023-04-01T23:24:50;11.00;99.90
17795;DHT22;9021;50.882;4.326;2023-04-01T23:30:46;11.00;99.90
17795;DHT22;9021;50.882;4.326;2023-04-01T23:33:44;11.00;99.90
17795;DHT22;9021;50.882;4.326;2023-04-01T23:36:14;11.00;99.90
17795;DHT22;9021;50.882;4.326;2023-04-01T23:38:42;11.20;99.90
17795;DHT22;9021;50.882;4.326;2023-04-01T23:41:20;11.10;99.90
17795;DHT22;9021;50.882;4.326;2023-04-01T23:43:55;11.10;99.90
17795;DHT22;9021;50.882;4.326;2023-04-01T23:46:22;11.10;99.90
17795;DHT22;9021;50.882;4.326;2023-04-01T23:48:48;11.70;99.90
17795;DHT22;9021;50.882;4.326;2023-04-01T23:51:22;11.00;99.90
17795;DHT22;9021;50.882;4.326;2023-04-01T23:54:01;11.00;99.90
17795;DHT22;9021;50.882;4.326;2023-04-01T23:56:46;10.90;99.90
17795;DHT22;9021;50.882;4.326;2023-04-01T23:59:34;10.90;99.90
